sensor_id;sensor_type;location;lat;lon;timestamp;P1;durP1;ratioP1;P2;durP2;ratioP2
43620;SDS011;29213;50.770;7.298;2023-06-26T00:02:12;7.57;;;5.43;;
43620;SDS011;29213;50.770;7.298;2023-06-26T00:04:37;6.20;;;5.15;;
43620;SDS011;29213;50.770;7.298;2023-06-26T00:07:06;6.40;;;5.30;;
43620;SDS011;29213;50.770;7.298;2023-06-26T00:09:32;6.10;;;4.77;;
43620;SDS011;29213;50.770;7.298;2023-06-26T00:11:57;6.30;;;5.07;;
43620;SDS011;29213;50.770;7.298;2023-06-26T00:14:24;5.88;;;5.10;;
43620;SDS011;29213;50.770;7.298;2023-06-26T00:16:50;7.10;;;5.40;;
43620;SDS011;29213;50.770;7.298;2023-06-26T00:19:16;7.75;;;5.57;;
43620;SDS011;29213;50.770;7.298;2023-06-26T00:21:41;6.97;;;5.55;;
43620;SDS011;29213;50.770;7.298;2023-06-26T00:24:15;7.38;;;5.22;;
43620;SDS011;29213;50.770;7.298;2023-06-26T00:26:42;6.85;;;5.18;;
43620;SDS011;29213;50.770;7.298;2023-06-26T00:29:07;6.50;;;5.38;;
43620;SDS011;29213;50.770;7.298;2023-06-26T00:31:33;6.82;;;5.32;;
43620;SDS011;29213;50.770;7.298;2023-06-26T00:34:00;6.82;;;5.13;;
43620;SDS011;29213;50.770;7.298;2023-06-26T00:36:26;6.53;;;5.28;;
43620;SDS011;29213;50.770;7.298;2023-06-26T00:38:52;7.22;;;5.47;;
43620;SDS011;29213;50.770;7.298;2023-06-26T00:41:19;6.22;;;5.15;;
43620;SDS011;29213;50.770;7.298;2023-06-26T00:43:44;7.90;;;5.80;;
43620;SDS011;29213;50.770;7.298;2023-06-26T00:46:12;6.32;;;5.20;;
43620;SDS011;29213;50.770;7.298;2023-06-26T00:48:38;6.15;;;5.47;;
43620;SDS011;29213;50.770;7.298;2023-06-26T00:51:06;6.35;;;5.18;;
43620;SDS011;29213;50.770;7.298;2023-06-26T00:53:32;6.70;;;5.60;;
43620;SDS011;29213;50.770;7.298;2023-06-26T00:55:58;6.47;;;5.15;;
43620;SDS011;29213;50.770;7.298;2023-06-26T00:58:24;7.93;;;5.40;;
43620;SDS011;29213;50.770;7.298;2023-06-26T01:00:53;7.85;;;5.28;;
43620;SDS011;29213;50.770;7.298;2023-06-26T01:03:19;7.13;;;5.57;;
43620;SDS011;29213;50.770;7.298;2023-06-26T01:05:47;6.90;;;5.18;;
43620;SDS011;29213;50.770;7.298;2023-06-26T01:08:14;9.15;;;5.90;;
43620;SDS011;29213;50.770;7.298;2023-06-26T01:10:40;6.95;;;5.32;;
43620;SDS011;29213;50.770;7.298;2023-06-26T01:13:06;6.93;;;5.32;;
43620;SDS011;29213;50.770;7.298;2023-06-26T01:15:31;6.97;;;5.35;;
43620;SDS011;29213;50.770;7.298;2023-06-26T01:17:57;7.50;;;5.35;;
43620;SDS011;29213;50.770;7.298;2023-06-26T01:20:25;6.53;;;5.20;;
43620;SDS011;29213;50.770;7.298;2023-06-26T01:28:14;8.25;;;5.40;;
43620;SDS011;29213;50.770;7.298;2023-06-26T01:30:41;7.65;;;5.65;;
43620;SDS011;29213;50.770;7.298;2023-06-26T01:33:09;6.80;;;5.07;;
43620;SDS011;29213;50.770;7.298;2023-06-26T01:35:36;6.20;;;5.32;;
43620;SDS011;29213;50.770;7.298;2023-06-26T01:38:15;6.68;;;5.47;;
43620;SDS011;29213;50.770;7.298;2023-06-26T01:40:42;8.77;;;5.43;;
43620;SDS011;29213;50.770;7.298;2023-06-26T01:43:15;9.80;;;5.22;;
43620;SDS011;29213;50.770;7.298;2023-06-26T01:45:50;7.05;;;5.22;;
43620;SDS011;29213;50.770;7.298;2023-06-26T01:48:17;6.38;;;5.45;;
43620;SDS011;29213;50.770;7.298;2023-06-26T01:50:48;6.50;;;5.30;;
43620;SDS011;29213;50.770;7.298;2023-06-26T01:53:17;6.68;;;5.07;;
43620;SDS011;29213;50.770;7.298;2023-06-26T01:55:46;7.13;;;5.40;;
43620;SDS011;29213;50.770;7.298;2023-06-26T01:58:15;7.65;;;5.50;;
43620;SDS011;29213;50.770;7.298;2023-06-26T02:00:45;7.18;;;5.50;;
43620;SDS011;29213;50.770;7.298;2023-06-26T02:03:11;6.97;;;5.40;;
43620;SDS011;29213;50.770;7.298;2023-06-26T02:05:36;7.85;;;5.35;;
43620;SDS011;29213;50.770;7.298;2023-06-26T02:08:02;7.97;;;5.57;;
43620;SDS011;29213;50.770;7.298;2023-06-26T02:10:28;7.05;;;5.40;;
43620;SDS011;29213;50.770;7.298;2023-06-26T02:12:53;9.35;;;5.72;;
43620;SDS011;29213;50.770;7.298;2023-06-26T02:15:19;6.40;;;5.35;;
43620;SDS011;29213;50.770;7.298;2023-06-26T02:17:44;7.57;;;6.10;;
43620;SDS011;29213;50.770;7.298;2023-06-26T02:20:13;7.78;;;5.38;;
43620;SDS011;29213;50.770;7.298;2023-06-26T02:22:39;8.35;;;6.07;;
43620;SDS011;29213;50.770;7.298;2023-06-26T02:25:04;6.80;;;5.38;;
43620;SDS011;29213;50.770;7.298;2023-06-26T02:27:30;7.95;;;5.75;;
43620;SDS011;29213;50.770;7.298;2023-06-26T02:29:56;6.97;;;5.85;;
43620;SDS011;29213;50.770;7.298;2023-06-26T02:32:21;7.90;;;5.60;;
43620;SDS011;29213;50.770;7.298;2023-06-26T02:34:46;8.05;;;5.65;;
43620;SDS011;29213;50.770;7.298;2023-06-26T02:37:12;7.97;;;5.00;;
43620;SDS011;29213;50.770;7.298;2023-06-26T02:39:37;7.60;;;5.47;;
43620;SDS011;29213;50.770;7.298;2023-06-26T02:42:03;8.88;;;5.82;;
43620;SDS011;29213;50.770;7.298;2023-06-26T02:44:28;8.70;;;5.50;;
43620;SDS011;29213;50.770;7.298;2023-06-26T02:46:54;6.70;;;5.10;;
43620;SDS011;29213;50.770;7.298;2023-06-26T02:49:19;8.07;;;5.47;;
43620;SDS011;29213;50.770;7.298;2023-06-26T02:51:45;8.05;;;5.50;;
43620;SDS011;29213;50.770;7.298;2023-06-26T02:54:10;8.25;;;5.43;;
43620;SDS011;29213;50.770;7.298;2023-06-26T02:56:35;7.60;;;4.93;;
43620;SDS011;29213;50.770;7.298;2023-06-26T02:59:01;8.32;;;4.78;;
43620;SDS011;29213;50.770;7.298;2023-06-26T03:01:26;7.75;;;5.75;;
43620;SDS011;29213;50.770;7.298;2023-06-26T03:03:52;7.10;;;5.68;;
43620;SDS011;29213;50.770;7.298;2023-06-26T03:06:17;6.18;;;4.93;;
43620;SDS011;29213;50.770;7.298;2023-06-26T03:08:43;6.82;;;4.97;;
43620;SDS011;29213;50.770;7.298;2023-06-26T03:11:09;7.13;;;5.20;;
43620;SDS011;29213;50.770;7.298;2023-06-26T03:13:34;6.68;;;5.40;;
43620;SDS011;29213;50.770;7.298;2023-06-26T03:16:01;7.97;;;5.68;;
43620;SDS011;29213;50.770;7.298;2023-06-26T03:18:27;9.15;;;5.43;;
43620;SDS011;29213;50.770;7.298;2023-06-26T03:20:53;10.27;;;5.50;;
43620;SDS011;29213;50.770;7.298;2023-06-26T03:23:20;7.03;;;5.30;;
43620;SDS011;29213;50.770;7.298;2023-06-26T03:25:46;8.27;;;5.47;;
43620;SDS011;29213;50.770;7.298;2023-06-26T03:28:11;7.05;;;5.22;;
43620;SDS011;29213;50.770;7.298;2023-06-26T03:30:37;7.22;;;5.30;;
43620;SDS011;29213;50.770;7.298;2023-06-26T03:33:02;7.20;;;5.32;;
43620;SDS011;29213;50.770;7.298;2023-06-26T03:35:28;9.10;;;5.30;;
43620;SDS011;29213;50.770;7.298;2023-06-26T03:37:53;7.75;;;5.30;;
43620;SDS011;29213;50.770;7.298;2023-06-26T03:40:19;7.70;;;5.38;;
43620;SDS011;29213;50.770;7.298;2023-06-26T03:42:45;8.15;;;5.22;;
43620;SDS011;29213;50.770;7.298;2023-06-26T03:45:10;8.35;;;4.95;;
43620;SDS011;29213;50.770;7.298;2023-06-26T03:47:36;8.48;;;5.70;;
43620;SDS011;29213;50.770;7.298;2023-06-26T03:50:01;6.68;;;5.20;;
43620;SDS011;29213;50.770;7.298;2023-06-26T03:52:26;7.05;;;5.10;;
43620;SDS011;29213;50.770;7.298;2023-06-26T03:54:52;7.35;;;5.05;;
43620;SDS011;29213;50.770;7.298;2023-06-26T03:57:17;7.72;;;5.28;;
43620;SDS011;29213;50.770;7.298;2023-06-26T03:59:43;7.53;;;4.82;;
43620;SDS011;29213;50.770;7.298;2023-06-26T04:02:08;8.90;;;5.13;;
43620;SDS011;29213;50.770;7.298;2023-06-26T04:04:33;6.68;;;4.90;;
43620;SDS011;29213;50.770;7.298;2023-06-26T04:06:59;6.93;;;4.93;;
43620;SDS011;29213;50.770;7.298;2023-06-26T04:09:25;7.20;;;5.07;;
43620;SDS011;29213;50.770;7.298;2023-06-26T04:11:51;7.63;;;5.43;;
43620;SDS011;29213;50.770;7.298;2023-06-26T04:14:17;9.52;;;5.03;;
43620;SDS011;29213;50.770;7.298;2023-06-26T04:16:42;7.03;;;5.13;;
43620;SDS011;29213;50.770;7.298;2023-06-26T04:19:07;7.80;;;5.10;;
43620;SDS011;29213;50.770;7.298;2023-06-26T04:21:35;9.98;;;5.78;;
43620;SDS011;29213;50.770;7.298;2023-06-26T04:24:00;6.65;;;4.85;;
43620;SDS011;29213;50.770;7.298;2023-06-26T04:26:26;7.15;;;5.18;;
43620;SDS011;29213;50.770;7.298;2023-06-26T04:28:53;8.93;;;5.43;;
43620;SDS011;29213;50.770;7.298;2023-06-26T04:31:19;7.00;;;5.38;;
43620;SDS011;29213;50.770;7.298;2023-06-26T04:33:44;10.38;;;5.32;;
43620;SDS011;29213;50.770;7.298;2023-06-26T04:36:10;8.85;;;5.35;;
43620;SDS011;29213;50.770;7.298;2023-06-26T04:38:36;8.23;;;5.30;;
43620;SDS011;29213;50.770;7.298;2023-06-26T04:41:01;7.25;;;5.50;;
43620;SDS011;29213;50.770;7.298;2023-06-26T04:43:27;6.93;;;5.28;;
43620;SDS011;29213;50.770;7.298;2023-06-26T04:45:52;8.43;;;5.07;;
43620;SDS011;29213;50.770;7.298;2023-06-26T04:48:18;8.48;;;5.57;;
43620;SDS011;29213;50.770;7.298;2023-06-26T04:50:43;6.97;;;4.95;;
43620;SDS011;29213;50.770;7.298;2023-06-26T04:53:11;7.65;;;5.35;;
43620;SDS011;29213;50.770;7.298;2023-06-26T04:55:36;6.85;;;5.10;;
43620;SDS011;29213;50.770;7.298;2023-06-26T04:58:01;7.15;;;4.95;;
43620;SDS011;29213;50.770;7.298;2023-06-26T05:00:27;6.53;;;5.03;;
43620;SDS011;29213;50.770;7.298;2023-06-26T05:02:52;7.75;;;5.30;;
43620;SDS011;29213;50.770;7.298;2023-06-26T05:05:26;6.30;;;4.65;;
43620;SDS011;29213;50.770;7.298;2023-06-26T05:07:55;8.02;;;5.40;;
43620;SDS011;29213;50.770;7.298;2023-06-26T05:10:21;6.50;;;5.35;;
43620;SDS011;29213;50.770;7.298;2023-06-26T05:12:47;6.30;;;4.85;;
43620;SDS011;29213;50.770;7.298;2023-06-26T05:15:12;8.18;;;5.35;;
43620;SDS011;29213;50.770;7.298;2023-06-26T05:17:37;7.35;;;5.00;;
43620;SDS011;29213;50.770;7.298;2023-06-26T05:20:03;7.05;;;4.82;;
43620;SDS011;29213;50.770;7.298;2023-06-26T05:22:31;6.80;;;5.00;;
43620;SDS011;29213;50.770;7.298;2023-06-26T05:24:57;7.50;;;5.30;;
43620;SDS011;29213;50.770;7.298;2023-06-26T05:27:25;6.80;;;5.40;;
43620;SDS011;29213;50.770;7.298;2023-06-26T05:29:51;6.28;;;4.95;;
43620;SDS011;29213;50.770;7.298;2023-06-26T05:32:17;7.07;;;4.93;;
43620;SDS011;29213;50.770;7.298;2023-06-26T05:34:43;7.25;;;5.30;;
43620;SDS011;29213;50.770;7.298;2023-06-26T05:37:18;5.93;;;4.78;;
43620;SDS011;29213;50.770;7.298;2023-06-26T05:39:46;6.35;;;5.00;;
43620;SDS011;29213;50.770;7.298;2023-06-26T05:42:11;7.53;;;5.80;;
43620;SDS011;29213;50.770;7.298;2023-06-26T05:44:37;6.38;;;4.40;;
43620;SDS011;29213;50.770;7.298;2023-06-26T05:47:03;7.93;;;4.55;;
43620;SDS011;29213;50.770;7.298;2023-06-26T05:49:28;6.82;;;4.22;;
43620;SDS011;29213;50.770;7.298;2023-06-26T05:51:54;8.57;;;4.57;;
43620;SDS011;29213;50.770;7.298;2023-06-26T05:54:19;5.90;;;4.50;;
43620;SDS011;29213;50.770;7.298;2023-06-26T05:56:46;7.63;;;4.75;;
43620;SDS011;29213;50.770;7.298;2023-06-26T05:59:12;5.63;;;4.30;;
43620;SDS011;29213;50.770;7.298;2023-06-26T06:01:40;7.18;;;4.65;;
43620;SDS011;29213;50.770;7.298;2023-06-26T06:04:06;7.70;;;4.63;;
43620;SDS011;29213;50.770;7.298;2023-06-26T06:06:31;6.85;;;4.40;;
43620;SDS011;29213;50.770;7.298;2023-06-26T06:08:57;6.25;;;4.30;;
43620;SDS011;29213;50.770;7.298;2023-06-26T06:11:22;5.75;;;4.15;;
43620;SDS011;29213;50.770;7.298;2023-06-26T06:13:48;7.00;;;4.50;;
43620;SDS011;29213;50.770;7.298;2023-06-26T06:16:13;5.25;;;3.83;;
43620;SDS011;29213;50.770;7.298;2023-06-26T06:18:38;6.20;;;4.07;;
43620;SDS011;29213;50.770;7.298;2023-06-26T06:21:04;9.07;;;4.30;;
43620;SDS011;29213;50.770;7.298;2023-06-26T06:23:29;8.32;;;4.18;;
43620;SDS011;29213;50.770;7.298;2023-06-26T06:25:55;5.90;;;4.38;;
43620;SDS011;29213;50.770;7.298;2023-06-26T06:28:20;6.97;;;4.05;;
43620;SDS011;29213;50.770;7.298;2023-06-26T06:30:45;6.43;;;4.20;;
43620;SDS011;29213;50.770;7.298;2023-06-26T06:33:13;10.25;;;4.63;;
43620;SDS011;29213;50.770;7.298;2023-06-26T06:35:38;5.97;;;4.30;;
43620;SDS011;29213;50.770;7.298;2023-06-26T06:38:04;5.97;;;3.83;;
43620;SDS011;29213;50.770;7.298;2023-06-26T06:40:29;5.80;;;3.75;;
43620;SDS011;29213;50.770;7.298;2023-06-26T06:42:55;5.85;;;4.20;;
43620;SDS011;29213;50.770;7.298;2023-06-26T06:45:20;7.90;;;4.10;;
43620;SDS011;29213;50.770;7.298;2023-06-26T06:47:45;6.05;;;3.72;;
43620;SDS011;29213;50.770;7.298;2023-06-26T06:50:11;6.35;;;3.70;;
43620;SDS011;29213;50.770;7.298;2023-06-26T06:52:37;7.50;;;4.18;;
43620;SDS011;29213;50.770;7.298;2023-06-26T06:55:04;6.40;;;3.80;;
43620;SDS011;29213;50.770;7.298;2023-06-26T06:57:32;7.85;;;3.95;;
43620;SDS011;29213;50.770;7.298;2023-06-26T07:00:08;6.57;;;3.63;;
43620;SDS011;29213;50.770;7.298;2023-06-26T07:02:35;6.38;;;3.70;;
43620;SDS011;29213;50.770;7.298;2023-06-26T07:05:02;5.80;;;3.67;;
43620;SDS011;29213;50.770;7.298;2023-06-26T07:07:29;7.45;;;3.92;;
43620;SDS011;29213;50.770;7.298;2023-06-26T07:09:59;8.25;;;4.45;;
43620;SDS011;29213;50.770;7.298;2023-06-26T07:12:29;7.75;;;3.90;;
43620;SDS011;29213;50.770;7.298;2023-06-26T07:14:55;6.38;;;3.90;;
43620;SDS011;29213;50.770;7.298;2023-06-26T07:17:21;6.70;;;4.10;;
43620;SDS011;29213;50.770;7.298;2023-06-26T07:19:47;7.15;;;3.80;;
43620;SDS011;29213;50.770;7.298;2023-06-26T07:22:13;6.65;;;3.80;;
43620;SDS011;29213;50.770;7.298;2023-06-26T07:24:39;6.13;;;3.65;;
43620;SDS011;29213;50.770;7.298;2023-06-26T07:27:04;6.60;;;3.72;;
43620;SDS011;29213;50.770;7.298;2023-06-26T07:29:29;6.82;;;3.80;;
43620;SDS011;29213;50.770;7.298;2023-06-26T07:31:55;6.47;;;3.45;;
43620;SDS011;29213;50.770;7.298;2023-06-26T07:34:20;5.95;;;3.47;;
43620;SDS011;29213;50.770;7.298;2023-06-26T07:36:46;6.68;;;3.50;;
43620;SDS011;29213;50.770;7.298;2023-06-26T07:39:11;8.00;;;4.18;;
43620;SDS011;29213;50.770;7.298;2023-06-26T07:41:36;7.22;;;3.63;;
43620;SDS011;29213;50.770;7.298;2023-06-26T07:44:02;9.70;;;4.10;;
43620;SDS011;29213;50.770;7.298;2023-06-26T07:46:27;7.13;;;3.67;;
43620;SDS011;29213;50.770;7.298;2023-06-26T07:48:53;8.63;;;4.05;;
43620;SDS011;29213;50.770;7.298;2023-06-26T07:51:19;7.22;;;3.50;;
43620;SDS011;29213;50.770;7.298;2023-06-26T07:53:44;8.63;;;4.15;;
43620;SDS011;29213;50.770;7.298;2023-06-26T07:56:10;7.00;;;3.95;;
43620;SDS011;29213;50.770;7.298;2023-06-26T07:58:35;8.38;;;4.05;;
43620;SDS011;29213;50.770;7.298;2023-06-26T08:01:00;10.30;;;4.43;;
43620;SDS011;29213;50.770;7.298;2023-06-26T08:03:26;7.78;;;3.75;;
43620;SDS011;29213;50.770;7.298;2023-06-26T08:05:51;7.80;;;3.75;;
43620;SDS011;29213;50.770;7.298;2023-06-26T08:08:17;6.20;;;3.75;;
43620;SDS011;29213;50.770;7.298;2023-06-26T08:10:42;9.88;;;4.57;;
43620;SDS011;29213;50.770;7.298;2023-06-26T08:13:07;7.22;;;3.95;;
43620;SDS011;29213;50.770;7.298;2023-06-26T08:15:33;9.02;;;4.20;;
43620;SDS011;29213;50.770;7.298;2023-06-26T08:17:58;7.53;;;3.70;;
43620;SDS011;29213;50.770;7.298;2023-06-26T08:20:23;7.93;;;4.00;;
43620;SDS011;29213;50.770;7.298;2023-06-26T08:22:49;8.68;;;4.00;;
43620;SDS011;29213;50.770;7.298;2023-06-26T08:25:16;8.88;;;4.00;;
43620;SDS011;29213;50.770;7.298;2023-06-26T08:27:42;7.20;;;3.95;;
43620;SDS011;29213;50.770;7.298;2023-06-26T08:30:07;8.85;;;4.32;;
43620;SDS011;29213;50.770;7.298;2023-06-26T08:32:33;8.25;;;3.78;;
43620;SDS011;29213;50.770;7.298;2023-06-26T08:34:58;9.13;;;3.90;;
43620;SDS011;29213;50.770;7.298;2023-06-26T08:37:24;7.38;;;3.88;;
43620;SDS011;29213;50.770;7.298;2023-06-26T08:39:49;7.90;;;3.78;;
43620;SDS011;29213;50.770;7.298;2023-06-26T08:42:15;7.05;;;3.55;;
43620;SDS011;29213;50.770;7.298;2023-06-26T08:44:40;6.85;;;3.63;;
43620;SDS011;29213;50.770;7.298;2023-06-26T08:47:05;8.27;;;3.50;;
43620;SDS011;29213;50.770;7.298;2023-06-26T08:49:37;7.32;;;3.20;;
43620;SDS011;29213;50.770;7.298;2023-06-26T08:52:20;6.38;;;3.42;;
43620;SDS011;29213;50.770;7.298;2023-06-26T08:54:56;6.72;;;3.53;;
43620;SDS011;29213;50.770;7.298;2023-06-26T08:57:23;5.53;;;3.22;;
43620;SDS011;29213;50.770;7.298;2023-06-26T08:59:51;6.38;;;3.60;;
43620;SDS011;29213;50.770;7.298;2023-06-26T09:02:17;7.45;;;3.38;;
43620;SDS011;29213;50.770;7.298;2023-06-26T09:04:43;6.05;;;3.47;;
43620;SDS011;29213;50.770;7.298;2023-06-26T09:07:08;6.93;;;3.35;;
43620;SDS011;29213;50.770;7.298;2023-06-26T09:09:34;5.55;;;3.15;;
43620;SDS011;29213;50.770;7.298;2023-06-26T09:12:03;7.93;;;3.70;;
43620;SDS011;29213;50.770;7.298;2023-06-26T09:16:55;7.07;;;3.03;;
43620;SDS011;29213;50.770;7.298;2023-06-26T09:19:20;6.55;;;3.70;;
43620;SDS011;29213;50.770;7.298;2023-06-26T09:21:46;5.60;;;3.17;;
43620;SDS011;29213;50.770;7.298;2023-06-26T09:24:14;8.30;;;3.40;;
43620;SDS011;29213;50.770;7.298;2023-06-26T09:26:41;7.43;;;3.60;;
43620;SDS011;29213;50.770;7.298;2023-06-26T09:29:06;6.68;;;3.30;;
43620;SDS011;29213;50.770;7.298;2023-06-26T09:31:33;8.00;;;3.60;;
43620;SDS011;29213;50.770;7.298;2023-06-26T09:33:59;7.05;;;2.85;;
43620;SDS011;29213;50.770;7.298;2023-06-26T09:36:27;10.52;;;3.42;;
43620;SDS011;29213;50.770;7.298;2023-06-26T09:38:54;6.03;;;2.92;;
43620;SDS011;29213;50.770;7.298;2023-06-26T09:41:20;8.95;;;2.83;;
43620;SDS011;29213;50.770;7.298;2023-06-26T09:43:49;5.90;;;2.60;;
43620;SDS011;29213;50.770;7.298;2023-06-26T09:46:25;6.82;;;3.08;;
43620;SDS011;29213;50.770;7.298;2023-06-26T09:49:00;6.55;;;2.72;;
43620;SDS011;29213;50.770;7.298;2023-06-26T09:51:36;7.72;;;3.08;;
43620;SDS011;29213;50.770;7.298;2023-06-26T09:54:03;5.57;;;2.70;;
43620;SDS011;29213;50.770;7.298;2023-06-26T09:56:30;6.00;;;3.00;;
43620;SDS011;29213;50.770;7.298;2023-06-26T09:58:56;5.32;;;2.78;;
43620;SDS011;29213;50.770;7.298;2023-06-26T10:01:23;6.72;;;2.63;;
43620;SDS011;29213;50.770;7.298;2023-06-26T10:03:49;6.72;;;3.00;;
43620;SDS011;29213;50.770;7.298;2023-06-26T10:06:15;6.57;;;2.85;;
43620;SDS011;29213;50.770;7.298;2023-06-26T10:08:44;12.05;;;3.10;;
43620;SDS011;29213;50.770;7.298;2023-06-26T10:11:11;5.47;;;2.75;;
43620;SDS011;29213;50.770;7.298;2023-06-26T10:13:42;4.72;;;2.38;;
43620;SDS011;29213;50.770;7.298;2023-06-26T10:16:11;5.63;;;2.53;;
43620;SDS011;29213;50.770;7.298;2023-06-26T10:18:41;5.20;;;2.50;;
43620;SDS011;29213;50.770;7.298;2023-06-26T10:21:08;8.45;;;2.45;;
43620;SDS011;29213;50.770;7.298;2023-06-26T10:23:36;6.00;;;2.65;;
43620;SDS011;29213;50.770;7.298;2023-06-26T10:26:04;5.43;;;2.40;;
43620;SDS011;29213;50.770;7.298;2023-06-26T10:28:31;6.72;;;2.70;;
43620;SDS011;29213;50.770;7.298;2023-06-26T10:31:00;6.13;;;2.60;;
43620;SDS011;29213;50.770;7.298;2023-06-26T10:33:28;6.53;;;2.28;;
43620;SDS011;29213;50.770;7.298;2023-06-26T10:35:54;6.05;;;2.60;;
43620;SDS011;29213;50.770;7.298;2023-06-26T10:41:19;7.80;;;2.63;;
43620;SDS011;29213;50.770;7.298;2023-06-26T10:43:48;4.28;;;2.05;;
43620;SDS011;29213;50.770;7.298;2023-06-26T10:46:15;6.45;;;2.65;;
43620;SDS011;29213;50.770;7.298;2023-06-26T10:48:59;5.60;;;2.55;;
43620;SDS011;29213;50.770;7.298;2023-06-26T10:51:26;6.10;;;2.13;;
43620;SDS011;29213;50.770;7.298;2023-06-26T10:53:55;5.10;;;2.20;;
43620;SDS011;29213;50.770;7.298;2023-06-26T10:56:40;6.97;;;2.50;;
43620;SDS011;29213;50.770;7.298;2023-06-26T10:59:17;6.37;;;2.37;;
43620;SDS011;29213;50.770;7.298;2023-06-26T11:01:46;4.45;;;2.08;;
43620;SDS011;29213;50.770;7.298;2023-06-26T11:07:20;5.22;;;2.22;;
43620;SDS011;29213;50.770;7.298;2023-06-26T11:10:00;4.70;;;2.22;;
43620;SDS011;29213;50.770;7.298;2023-06-26T11:12:42;5.18;;;1.95;;
43620;SDS011;29213;50.770;7.298;2023-06-26T11:15:09;5.45;;;1.83;;
43620;SDS011;29213;50.770;7.298;2023-06-26T11:17:39;14.50;;;2.00;;
43620;SDS011;29213;50.770;7.298;2023-06-26T11:20:06;4.30;;;2.00;;
43620;SDS011;29213;50.770;7.298;2023-06-26T11:22:40;5.18;;;2.03;;
43620;SDS011;29213;50.770;7.298;2023-06-26T11:25:14;4.53;;;1.80;;
43620;SDS011;29213;50.770;7.298;2023-06-26T11:32:38;4.82;;;2.13;;
43620;SDS011;29213;50.770;7.298;2023-06-26T11:35:04;4.60;;;2.30;;
43620;SDS011;29213;50.770;7.298;2023-06-26T11:37:31;7.55;;;2.30;;
43620;SDS011;29213;50.770;7.298;2023-06-26T11:39:57;5.18;;;2.10;;
43620;SDS011;29213;50.770;7.298;2023-06-26T11:42:23;5.20;;;1.90;;
43620;SDS011;29213;50.770;7.298;2023-06-26T11:44:50;6.20;;;2.17;;
43620;SDS011;29213;50.770;7.298;2023-06-26T11:47:18;5.28;;;1.73;;
43620;SDS011;29213;50.770;7.298;2023-06-26T11:49:48;4.03;;;1.75;;
43620;SDS011;29213;50.770;7.298;2023-06-26T11:52:15;5.88;;;1.90;;
43620;SDS011;29213;50.770;7.298;2023-06-26T11:54:41;6.35;;;2.05;;
43620;SDS011;29213;50.770;7.298;2023-06-26T11:57:08;5.03;;;1.95;;
43620;SDS011;29213;50.770;7.298;2023-06-26T11:59:34;7.05;;;1.80;;
43620;SDS011;29213;50.770;7.298;2023-06-26T12:02:04;4.13;;;1.70;;
43620;SDS011;29213;50.770;7.298;2023-06-26T12:04:31;4.25;;;1.80;;
43620;SDS011;29213;50.770;7.298;2023-06-26T12:06:57;6.07;;;1.88;;
43620;SDS011;29213;50.770;7.298;2023-06-26T12:09:23;6.03;;;2.13;;
43620;SDS011;29213;50.770;7.298;2023-06-26T12:11:51;5.32;;;1.80;;
43620;SDS011;29213;50.770;7.298;2023-06-26T12:14:19;3.90;;;1.67;;
43620;SDS011;29213;50.770;7.298;2023-06-26T12:16:45;4.32;;;1.83;;
43620;SDS011;29213;50.770;7.298;2023-06-26T12:19:12;4.70;;;1.73;;
43620;SDS011;29213;50.770;7.298;2023-06-26T12:24:08;4.22;;;1.70;;
43620;SDS011;29213;50.770;7.298;2023-06-26T12:26:35;4.05;;;1.70;;
43620;SDS011;29213;50.770;7.298;2023-06-26T12:29:05;5.22;;;1.77;;
43620;SDS011;29213;50.770;7.298;2023-06-26T12:31:32;4.53;;;1.70;;
43620;SDS011;29213;50.770;7.298;2023-06-26T12:33:58;6.60;;;1.90;;
43620;SDS011;29213;50.770;7.298;2023-06-26T12:36:24;4.30;;;1.80;;
43620;SDS011;29213;50.770;7.298;2023-06-26T12:38:52;4.78;;;1.60;;
43620;SDS011;29213;50.770;7.298;2023-06-26T12:41:18;6.78;;;2.15;;
43620;SDS011;29213;50.770;7.298;2023-06-26T12:43:45;4.40;;;1.90;;
43620;SDS011;29213;50.770;7.298;2023-06-26T12:46:11;4.60;;;1.60;;
43620;SDS011;29213;50.770;7.298;2023-06-26T12:48:41;4.45;;;1.63;;
43620;SDS011;29213;50.770;7.298;2023-06-26T12:51:17;4.05;;;1.73;;
43620;SDS011;29213;50.770;7.298;2023-06-26T12:56:09;6.75;;;1.70;;
43620;SDS011;29213;50.770;7.298;2023-06-26T12:58:35;6.63;;;2.00;;
43620;SDS011;29213;50.770;7.298;2023-06-26T13:01:05;4.32;;;1.92;;
43620;SDS011;29213;50.770;7.298;2023-06-26T13:03:40;3.63;;;1.40;;
43620;SDS011;29213;50.770;7.298;2023-06-26T13:06:05;6.95;;;2.13;;
43620;SDS011;29213;50.770;7.298;2023-06-26T13:08:31;4.55;;;1.70;;
43620;SDS011;29213;50.770;7.298;2023-06-26T13:10:58;5.32;;;1.85;;
43620;SDS011;29213;50.770;7.298;2023-06-26T13:13:24;5.18;;;1.85;;
43620;SDS011;29213;50.770;7.298;2023-06-26T13:15:49;3.97;;;1.70;;
43620;SDS011;29213;50.770;7.298;2023-06-26T13:18:15;4.72;;;1.70;;
43620;SDS011;29213;50.770;7.298;2023-06-26T13:20:40;4.57;;;1.80;;
43620;SDS011;29213;50.770;7.298;2023-06-26T13:23:05;6.60;;;1.90;;
43620;SDS011;29213;50.770;7.298;2023-06-26T13:25:32;4.97;;;1.70;;
43620;SDS011;29213;50.770;7.298;2023-06-26T13:27:58;4.32;;;1.77;;
43620;SDS011;29213;50.770;7.298;2023-06-26T13:30:23;7.35;;;1.90;;
43620;SDS011;29213;50.770;7.298;2023-06-26T13:32:49;6.15;;;1.98;;
43620;SDS011;29213;50.770;7.298;2023-06-26T13:35:22;5.10;;;2.00;;
43620;SDS011;29213;50.770;7.298;2023-06-26T13:38:10;4.97;;;1.80;;
43620;SDS011;29213;50.770;7.298;2023-06-26T13:40:37;4.35;;;1.75;;
43620;SDS011;29213;50.770;7.298;2023-06-26T13:43:02;6.85;;;2.10;;
43620;SDS011;29213;50.770;7.298;2023-06-26T13:45:28;5.18;;;1.65;;
43620;SDS011;29213;50.770;7.298;2023-06-26T13:47:54;5.03;;;1.75;;
43620;SDS011;29213;50.770;7.298;2023-06-26T13:50:20;4.93;;;1.73;;
43620;SDS011;29213;50.770;7.298;2023-06-26T13:52:45;4.13;;;1.50;;
43620;SDS011;29213;50.770;7.298;2023-06-26T13:58:37;3.88;;;1.60;;
43620;SDS011;29213;50.770;7.298;2023-06-26T14:01:09;6.85;;;1.83;;
43620;SDS011;29213;50.770;7.298;2023-06-26T14:03:57;3.92;;;1.50;;
43620;SDS011;29213;50.770;7.298;2023-06-26T14:06:25;3.85;;;1.50;;
43620;SDS011;29213;50.770;7.298;2023-06-26T14:08:53;3.88;;;1.30;;
43620;SDS011;29213;50.770;7.298;2023-06-26T14:11:27;6.25;;;1.80;;
43620;SDS011;29213;50.770;7.298;2023-06-26T14:13:52;3.58;;;1.30;;
43620;SDS011;29213;50.770;7.298;2023-06-26T14:16:44;3.90;;;1.30;;
43620;SDS011;29213;50.770;7.298;2023-06-26T14:19:10;4.40;;;1.30;;
43620;SDS011;29213;50.770;7.298;2023-06-26T14:21:46;4.10;;;1.30;;
43620;SDS011;29213;50.770;7.298;2023-06-26T14:24:32;4.18;;;1.67;;
43620;SDS011;29213;50.770;7.298;2023-06-26T14:27:28;4.18;;;1.50;;
43620;SDS011;29213;50.770;7.298;2023-06-26T14:29:53;3.97;;;1.30;;
43620;SDS011;29213;50.770;7.298;2023-06-26T14:32:19;3.28;;;1.20;;
43620;SDS011;29213;50.770;7.298;2023-06-26T14:34:44;2.70;;;1.17;;
43620;SDS011;29213;50.770;7.298;2023-06-26T14:37:10;4.22;;;1.30;;
43620;SDS011;29213;50.770;7.298;2023-06-26T14:39:35;2.97;;;1.35;;
43620;SDS011;29213;50.770;7.298;2023-06-26T14:42:00;5.50;;;1.40;;
43620;SDS011;29213;50.770;7.298;2023-06-26T14:44:26;3.70;;;1.30;;
43620;SDS011;29213;50.770;7.298;2023-06-26T14:46:52;3.38;;;1.13;;
43620;SDS011;29213;50.770;7.298;2023-06-26T14:49:17;7.00;;;1.50;;
43620;SDS011;29213;50.770;7.298;2023-06-26T14:51:44;5.97;;;1.38;;
43620;SDS011;29213;50.770;7.298;2023-06-26T14:54:09;6.15;;;1.90;;
43620;SDS011;29213;50.770;7.298;2023-06-26T14:56:35;2.83;;;1.20;;
43620;SDS011;29213;50.770;7.298;2023-06-26T14:59:00;5.32;;;1.40;;
43620;SDS011;29213;50.770;7.298;2023-06-26T15:01:26;4.55;;;1.20;;
43620;SDS011;29213;50.770;7.298;2023-06-26T15:03:51;5.72;;;1.30;;
43620;SDS011;29213;50.770;7.298;2023-06-26T15:06:17;5.32;;;1.30;;
43620;SDS011;29213;50.770;7.298;2023-06-26T15:08:42;3.20;;;1.00;;
43620;SDS011;29213;50.770;7.298;2023-06-26T15:11:08;3.90;;;1.35;;
43620;SDS011;29213;50.770;7.298;2023-06-26T15:13:33;4.20;;;1.20;;
43620;SDS011;29213;50.770;7.298;2023-06-26T15:15:59;9.02;;;3.60;;